sensor_id;sensor_type;location;lat;lon;timestamp;temperature;humidity
70421;SHT31;57848;51.938;15.520;2023-08-08T00:00:46;13.36;82.74
70421;SHT31;57848;51.938;15.520;2023-08-08T00:03:11;13.42;81.84
70421;SHT31;57848;51.938;15.520;2023-08-08T00:05:37;13.41;82.02
70421;SHT31;57848;51.938;15.520;2023-08-08T00:08:02;13.35;82.46
70421;SHT31;57848;51.938;15.520;2023-08-08T00:10:28;13.39;81.47
70421;SHT31;57848;51.938;15.520;2023-08-08T00:12:53;13.32;82.08
70421;SHT31;57848;51.938;15.520;2023-08-08T00:15:18;13.39;82.23
70421;SHT31;57848;51.938;15.520;2023-08-08T00:17:44;13.42;81.50
70421;SHT31;57848;51.938;15.520;2023-08-08T00:20:09;13.49;82.08
70421;SHT31;57848;51.938;15.520;2023-08-08T00:22:35;13.48;82.35
70421;SHT31;57848;51.938;15.520;2023-08-08T00:25:00;13.45;82.63
70421;SHT31;57848;51.938;15.520;2023-08-08T00:27:25;13.46;82.17
70421;SHT31;57848;51.938;15.520;2023-08-08T00:29:51;13.46;81.71
70421;SHT31;57848;51.938;15.520;2023-08-08T00:32:18;13.42;81.84
70421;SHT31;57848;51.938;15.520;2023-08-08T00:34:43;13.43;82.78
70421;SHT31;57848;51.938;15.520;2023-08-08T00:37:09;13.42;82.23
70421;SHT31;57848;51.938;15.520;2023-08-08T00:39:34;13.36;81.98
70421;SHT31;57848;51.938;15.520;2023-08-08T00:42:00;13.28;81.82
70421;SHT31;57848;51.938;15.520;2023-08-08T00:44:25;13.19;82.67
70421;SHT31;57848;51.938;15.520;2023-08-08T00:46:50;13.12;82.16
70421;SHT31;57848;51.938;15.520;2023-08-08T00:49:16;13.12;82.43
70421;SHT31;57848;51.938;15.520;2023-08-08T00:51:41;13.04;82.31
70421;SHT31;57848;51.938;15.520;2023-08-08T00:54:07;12.98;82.69
70421;SHT31;57848;51.938;15.520;2023-08-08T00:56:33;12.94;83.15
70421;SHT31;57848;51.938;15.520;2023-08-08T00:58:59;12.90;82.79
70421;SHT31;57848;51.938;15.520;2023-08-08T01:01:24;12.90;82.70
70421;SHT31;57848;51.938;15.520;2023-08-08T01:03:49;12.80;83.09
70421;SHT31;57848;51.938;15.520;2023-08-08T01:06:46;12.77;83.29
70421;SHT31;57848;51.938;15.520;2023-08-08T01:09:25;12.79;82.84
70421;SHT31;57848;51.938;15.520;2023-08-08T01:11:54;12.70;83.45
70421;SHT31;57848;51.938;15.520;2023-08-08T01:14:21;12.70;83.44
70421;SHT31;57848;51.938;15.520;2023-08-08T01:16:46;12.65;83.81
70421;SHT31;57848;51.938;15.520;2023-08-08T01:19:15;12.64;83.14
70421;SHT31;57848;51.938;15.520;2023-08-08T01:21:45;12.63;83.40
70421;SHT31;57848;51.938;15.520;2023-08-08T01:24:19;12.64;83.06
70421;SHT31;57848;51.938;15.520;2023-08-08T01:26:45;12.65;83.20
70421;SHT31;57848;51.938;15.520;2023-08-08T01:29:11;12.68;82.47
70421;SHT31;57848;51.938;15.520;2023-08-08T01:31:36;12.76;82.18
70421;SHT31;57848;51.938;15.520;2023-08-08T01:34:04;12.74;82.06
70421;SHT31;57848;51.938;15.520;2023-08-08T01:36:34;12.77;82.41
70421;SHT31;57848;51.938;15.520;2023-08-08T01:39:01;12.79;81.86
70421;SHT31;57848;51.938;15.520;2023-08-08T01:41:33;12.76;81.70
70421;SHT31;57848;51.938;15.520;2023-08-08T01:44:00;12.74;81.68
70421;SHT31;57848;51.938;15.520;2023-08-08T01:46:26;12.80;82.05
70421;SHT31;57848;51.938;15.520;2023-08-08T01:48:52;12.77;81.61
70421;SHT31;57848;51.938;15.520;2023-08-08T01:51:18;12.77;81.57
70421;SHT31;57848;51.938;15.520;2023-08-08T01:53:43;12.73;81.06
70421;SHT31;57848;51.938;15.520;2023-08-08T01:56:08;12.73;81.62
70421;SHT31;57848;51.938;15.520;2023-08-08T01:58:34;12.68;81.88
70421;SHT31;57848;51.938;15.520;2023-08-08T02:00:59;12.64;81.51
70421;SHT31;57848;51.938;15.520;2023-08-08T02:03:25;12.60;81.75
70421;SHT31;57848;51.938;15.520;2023-08-08T02:05:51;12.49;81.93
70421;SHT31;57848;51.938;15.520;2023-08-08T02:08:16;12.49;81.67
70421;SHT31;57848;51.938;15.520;2023-08-08T02:10:43;12.44;81.98
70421;SHT31;57848;51.938;15.520;2023-08-08T02:13:08;12.40;82.24
70421;SHT31;57848;51.938;15.520;2023-08-08T02:15:34;12.32;82.24
70421;SHT31;57848;51.938;15.520;2023-08-08T02:18:00;12.33;82.62
70421;SHT31;57848;51.938;15.520;2023-08-08T02:20:26;12.32;82.08
70421;SHT31;57848;51.938;15.520;2023-08-08T02:22:51;12.29;82.58
70421;SHT31;57848;51.938;15.520;2023-08-08T02:25:17;12.23;82.51
70421;SHT31;57848;51.938;15.520;2023-08-08T02:27:42;12.19;82.86
70421;SHT31;57848;51.938;15.520;2023-08-08T02:30:09;12.18;82.75
70421;SHT31;57848;51.938;15.520;2023-08-08T02:32:35;12.15;82.68
70421;SHT31;57848;51.938;15.520;2023-08-08T02:35:00;12.15;82.89
70421;SHT31;57848;51.938;15.520;2023-08-08T02:37:25;12.12;83.05
70421;SHT31;57848;51.938;15.520;2023-08-08T02:39:51;12.08;83.35
70421;SHT31;57848;51.938;15.520;2023-08-08T02:42:16;12.09;83.22
70421;SHT31;57848;51.938;15.520;2023-08-08T02:44:42;12.09;82.78
70421;SHT31;57848;51.938;15.520;2023-08-08T02:47:08;12.08;82.76
70421;SHT31;57848;51.938;15.520;2023-08-08T02:49:34;12.03;83.51
70421;SHT31;57848;51.938;15.520;2023-08-08T02:52:00;11.95;83.52
70421;SHT31;57848;51.938;15.520;2023-08-08T02:54:28;11.99;83.00
70421;SHT31;57848;51.938;15.520;2023-08-08T02:56:54;11.93;83.57
70421;SHT31;57848;51.938;15.520;2023-08-08T02:59:19;12.02;82.98
70421;SHT31;57848;51.938;15.520;2023-08-08T03:01:46;11.96;83.15
70421;SHT31;57848;51.938;15.520;2023-08-08T03:04:16;11.99;83.31
70421;SHT31;57848;51.938;15.520;2023-08-08T03:06:41;11.93;83.85
70421;SHT31;57848;51.938;15.520;2023-08-08T03:09:07;11.89;83.85
70421;SHT31;57848;51.938;15.520;2023-08-08T03:11:33;11.91;83.64
70421;SHT31;57848;51.938;15.520;2023-08-08T03:13:58;11.84;83.94
70421;SHT31;57848;51.938;15.520;2023-08-08T03:16:24;11.84;84.20
70421;SHT31;57848;51.938;15.520;2023-08-08T03:18:51;11.86;83.91
70421;SHT31;57848;51.938;15.520;2023-08-08T03:21:17;11.82;84.05
70421;SHT31;57848;51.938;15.520;2023-08-08T03:23:44;11.86;83.64
70421;SHT31;57848;51.938;15.520;2023-08-08T03:26:09;11.81;84.00
70421;SHT31;57848;51.938;15.520;2023-08-08T03:28:35;11.81;83.87
70421;SHT31;57848;51.938;15.520;2023-08-08T03:31:00;11.81;84.04
70421;SHT31;57848;51.938;15.520;2023-08-08T03:33:28;11.77;84.07
70421;SHT31;57848;51.938;15.520;2023-08-08T03:35:54;11.81;83.56
70421;SHT31;57848;51.938;15.520;2023-08-08T03:38:19;11.79;84.14
70421;SHT31;57848;51.938;15.520;2023-08-08T03:40:45;11.78;84.24
70421;SHT31;57848;51.938;15.520;2023-08-08T03:43:10;11.78;83.61
70421;SHT31;57848;51.938;15.520;2023-08-08T03:45:36;11.82;83.09
70421;SHT31;57848;51.938;15.520;2023-08-08T03:48:01;11.74;83.70
70421;SHT31;57848;51.938;15.520;2023-08-08T03:50:27;11.79;83.07
70421;SHT31;57848;51.938;15.520;2023-08-08T03:52:53;11.78;83.66
70421;SHT31;57848;51.938;15.520;2023-08-08T03:55:18;11.77;83.48
70421;SHT31;57848;51.938;15.520;2023-08-08T03:57:44;11.74;83.54
70421;SHT31;57848;51.938;15.520;2023-08-08T04:00:11;11.77;83.13
70421;SHT31;57848;51.938;15.520;2023-08-08T04:02:39;11.77;83.02
70421;SHT31;57848;51.938;15.520;2023-08-08T04:05:05;11.77;82.83
70421;SHT31;57848;51.938;15.520;2023-08-08T04:07:30;11.78;83.00
70421;SHT31;57848;51.938;15.520;2023-08-08T04:09:56;11.75;83.14
70421;SHT31;57848;51.938;15.520;2023-08-08T04:12:21;11.78;83.29
70421;SHT31;57848;51.938;15.520;2023-08-08T04:14:47;11.72;83.60
70421;SHT31;57848;51.938;15.520;2023-08-08T04:17:12;11.68;83.26
70421;SHT31;57848;51.938;15.520;2023-08-08T04:19:37;11.70;83.43
70421;SHT31;57848;51.938;15.520;2023-08-08T04:22:03;11.78;82.94
70421;SHT31;57848;51.938;15.520;2023-08-08T04:24:28;11.74;83.40
70421;SHT31;57848;51.938;15.520;2023-08-08T04:26:54;11.81;83.21
70421;SHT31;57848;51.938;15.520;2023-08-08T04:29:19;11.79;83.49
70421;SHT31;57848;51.938;15.520;2023-08-08T04:31:44;11.89;83.09
70421;SHT31;57848;51.938;15.520;2023-08-08T04:34:10;11.95;82.97
70421;SHT31;57848;51.938;15.520;2023-08-08T04:36:35;11.95;83.05
70421;SHT31;57848;51.938;15.520;2023-08-08T04:39:00;11.93;83.06
70421;SHT31;57848;51.938;15.520;2023-08-08T04:41:26;11.93;83.72
70421;SHT31;57848;51.938;15.520;2023-08-08T04:43:51;11.92;83.61
70421;SHT31;57848;51.938;15.520;2023-08-08T04:46:16;11.95;83.50
70421;SHT31;57848;51.938;15.520;2023-08-08T04:48:42;11.88;84.26
70421;SHT31;57848;51.938;15.520;2023-08-08T04:51:08;11.89;83.99
70421;SHT31;57848;51.938;15.520;2023-08-08T04:53:33;11.86;84.25
70421;SHT31;57848;51.938;15.520;2023-08-08T04:55:59;11.84;84.72
70421;SHT31;57848;51.938;15.520;2023-08-08T04:58:24;11.82;84.67
70421;SHT31;57848;51.938;15.520;2023-08-08T05:00:49;11.82;84.83
70421;SHT31;57848;51.938;15.520;2023-08-08T05:03:16;11.91;85.03
70421;SHT31;57848;51.938;15.520;2023-08-08T05:05:42;11.92;84.78
70421;SHT31;57848;51.938;15.520;2023-08-08T05:08:10;11.95;84.68
70421;SHT31;57848;51.938;15.520;2023-08-08T05:10:35;11.96;84.79
70421;SHT31;57848;51.938;15.520;2023-08-08T05:13:01;12.05;85.03
70421;SHT31;57848;51.938;15.520;2023-08-08T05:15:26;12.12;84.39
70421;SHT31;57848;51.938;15.520;2023-08-08T05:17:52;12.16;84.78
70421;SHT31;57848;51.938;15.520;2023-08-08T05:20:19;12.25;84.68
70421;SHT31;57848;51.938;15.520;2023-08-08T05:22:44;12.29;84.84
70421;SHT31;57848;51.938;15.520;2023-08-08T05:25:10;12.28;84.72
70421;SHT31;57848;51.938;15.520;2023-08-08T05:27:35;12.39;84.51
70421;SHT31;57848;51.938;15.520;2023-08-08T05:30:01;12.43;84.22
70421;SHT31;57848;51.938;15.520;2023-08-08T05:32:26;12.49;84.37
70421;SHT31;57848;51.938;15.520;2023-08-08T05:34:51;12.57;83.80
70421;SHT31;57848;51.938;15.520;2023-08-08T05:37:17;12.63;82.98
70421;SHT31;57848;51.938;15.520;2023-08-08T05:39:42;12.71;83.52
70421;SHT31;57848;51.938;15.520;2023-08-08T05:42:07;12.79;83.05
70421;SHT31;57848;51.938;15.520;2023-08-08T05:44:33;12.91;83.05
70421;SHT31;57848;51.938;15.520;2023-08-08T05:46:58;13.02;82.09
70421;SHT31;57848;51.938;15.520;2023-08-08T05:49:23;12.98;82.20
70421;SHT31;57848;51.938;15.520;2023-08-08T05:51:49;13.14;81.33
70421;SHT31;57848;51.938;15.520;2023-08-08T05:54:14;13.11;81.98
70421;SHT31;57848;51.938;15.520;2023-08-08T05:56:39;13.14;81.99
70421;SHT31;57848;51.938;15.520;2023-08-08T05:59:05;13.18;82.02
70421;SHT31;57848;51.938;15.520;2023-08-08T06:01:31;13.25;81.46
70421;SHT31;57848;51.938;15.520;2023-08-08T06:03:57;13.28;81.15
70421;SHT31;57848;51.938;15.520;2023-08-08T06:06:25;13.34;81.14
70421;SHT31;57848;51.938;15.520;2023-08-08T06:08:50;13.45;81.44
70421;SHT31;57848;51.938;15.520;2023-08-08T06:11:16;13.52;80.91
70421;SHT31;57848;51.938;15.520;2023-08-08T06:13:42;13.60;80.50
70421;SHT31;57848;51.938;15.520;2023-08-08T06:16:07;13.67;80.03
70421;SHT31;57848;51.938;15.520;2023-08-08T06:18:33;13.73;80.02
70421;SHT31;57848;51.938;15.520;2023-08-08T06:20:58;13.80;79.55
70421;SHT31;57848;51.938;15.520;2023-08-08T06:23:24;13.83;79.66
70421;SHT31;57848;51.938;15.520;2023-08-08T06:25:49;13.91;79.42
70421;SHT31;57848;51.938;15.520;2023-08-08T06:28:14;13.90;80.01
70421;SHT31;57848;51.938;15.520;2023-08-08T06:30:40;13.94;79.12
70421;SHT31;57848;51.938;15.520;2023-08-08T06:33:05;13.96;79.43
70421;SHT31;57848;51.938;15.520;2023-08-08T06:35:30;13.97;79.37
70421;SHT31;57848;51.938;15.520;2023-08-08T06:37:56;14.01;79.10
70421;SHT31;57848;51.938;15.520;2023-08-08T06:40:21;14.18;79.05
70421;SHT31;57848;51.938;15.520;2023-08-08T06:42:47;14.37;78.62
70421;SHT31;57848;51.938;15.520;2023-08-08T06:45:12;14.44;77.75
70421;SHT31;57848;51.938;15.520;2023-08-08T06:47:37;14.52;76.82
70421;SHT31;57848;51.938;15.520;2023-08-08T06:50:03;14.62;76.11
70421;SHT31;57848;51.938;15.520;2023-08-08T06:52:29;14.71;75.60
70421;SHT31;57848;51.938;15.520;2023-08-08T06:54:55;14.88;76.45
70421;SHT31;57848;51.938;15.520;2023-08-08T06:57:20;15.06;75.46
70421;SHT31;57848;51.938;15.520;2023-08-08T06:59:45;15.09;75.19
70421;SHT31;57848;51.938;15.520;2023-08-08T07:02:15;15.10;75.51
70421;SHT31;57848;51.938;15.520;2023-08-08T07:04:41;14.99;75.26
70421;SHT31;57848;51.938;15.520;2023-08-08T07:07:07;14.99;75.44
70421;SHT31;57848;51.938;15.520;2023-08-08T07:09:32;15.02;74.89
70421;SHT31;57848;51.938;15.520;2023-08-08T07:11:58;15.14;74.47
70421;SHT31;57848;51.938;15.520;2023-08-08T07:14:23;15.22;74.10
70421;SHT31;57848;51.938;15.520;2023-08-08T07:16:48;15.26;74.35
70421;SHT31;57848;51.938;15.520;2023-08-08T07:19:14;15.41;74.09
70421;SHT31;57848;51.938;15.520;2023-08-08T07:21:39;15.48;73.52
70421;SHT31;57848;51.938;15.520;2023-08-08T07:24:04;15.64;73.51
70421;SHT31;57848;51.938;15.520;2023-08-08T07:26:30;15.71;73.13
70421;SHT31;57848;51.938;15.520;2023-08-08T07:28:55;15.65;73.09
70421;SHT31;57848;51.938;15.520;2023-08-08T07:31:20;15.65;72.65
70421;SHT31;57848;51.938;15.520;2023-08-08T07:33:46;15.77;72.96
70421;SHT31;57848;51.938;15.520;2023-08-08T07:36:11;15.91;72.65
70421;SHT31;57848;51.938;15.520;2023-08-08T07:38:36;16.09;72.86
70421;SHT31;57848;51.938;15.520;2023-08-08T07:41:03;16.32;71.58
70421;SHT31;57848;51.938;15.520;2023-08-08T07:43:28;16.40;71.51
70421;SHT31;57848;51.938;15.520;2023-08-08T07:45:54;16.53;70.44
70421;SHT31;57848;51.938;15.520;2023-08-08T07:48:19;16.56;70.37
70421;SHT31;57848;51.938;15.520;2023-08-08T07:50:44;16.50;69.58
70421;SHT31;57848;51.938;15.520;2023-08-08T07:53:10;16.43;69.98
70421;SHT31;57848;51.938;15.520;2023-08-08T07:55:35;16.45;69.84
70421;SHT31;57848;51.938;15.520;2023-08-08T07:58:00;16.49;70.82
70421;SHT31;57848;51.938;15.520;2023-08-08T08:00:26;16.34;70.01
70421;SHT31;57848;51.938;15.520;2023-08-08T08:02:51;16.47;70.89
70421;SHT31;57848;51.938;15.520;2023-08-08T08:05:17;16.49;70.34
70421;SHT31;57848;51.938;15.520;2023-08-08T08:07:43;16.55;69.80
70421;SHT31;57848;51.938;15.520;2023-08-08T08:10:10;16.60;69.22
70421;SHT31;57848;51.938;15.520;2023-08-08T08:12:38;16.76;69.68
70421;SHT31;57848;51.938;15.520;2023-08-08T08:15:04;16.73;69.36
70421;SHT31;57848;51.938;15.520;2023-08-08T08:17:30;16.71;69.45
70421;SHT31;57848;51.938;15.520;2023-08-08T08:19:55;16.71;69.69
70421;SHT31;57848;51.938;15.520;2023-08-08T08:22:21;16.70;69.86
70421;SHT31;57848;51.938;15.520;2023-08-08T08:24:46;16.71;69.38
70421;SHT31;57848;51.938;15.520;2023-08-08T08:27:12;16.88;69.22
70421;SHT31;57848;51.938;15.520;2023-08-08T08:29:38;16.85;68.84
70421;SHT31;57848;51.938;15.520;2023-08-08T08:32:04;16.90;69.79
70421;SHT31;57848;51.938;15.520;2023-08-08T08:34:29;17.07;69.83
70421;SHT31;57848;51.938;15.520;2023-08-08T08:36:54;16.98;69.31
70421;SHT31;57848;51.938;15.520;2023-08-08T08:39:20;17.01;69.58
70421;SHT31;57848;51.938;15.520;2023-08-08T08:41:48;16.88;69.88
70421;SHT31;57848;51.938;15.520;2023-08-08T08:44:14;16.84;69.57
70421;SHT31;57848;51.938;15.520;2023-08-08T08:46:41;16.94;69.65
70421;SHT31;57848;51.938;15.520;2023-08-08T08:49:07;17.15;69.34
70421;SHT31;57848;51.938;15.520;2023-08-08T08:51:35;17.34;69.22
70421;SHT31;57848;51.938;15.520;2023-08-08T08:54:02;17.35;68.37
70421;SHT31;57848;51.938;15.520;2023-08-08T08:56:27;17.43;68.43
70421;SHT31;57848;51.938;15.520;2023-08-08T08:58:52;17.61;68.00
70421;SHT31;57848;51.938;15.520;2023-08-08T09:01:18;17.56;67.16
70421;SHT31;57848;51.938;15.520;2023-08-08T09:03:45;17.61;66.96
70421;SHT31;57848;51.938;15.520;2023-08-08T09:06:11;17.70;67.05
70421;SHT31;57848;51.938;15.520;2023-08-08T09:08:37;17.90;67.30
70421;SHT31;57848;51.938;15.520;2023-08-08T09:11:02;18.13;67.13
70421;SHT31;57848;51.938;15.520;2023-08-08T09:13:36;18.27;66.24
70421;SHT31;57848;51.938;15.520;2023-08-08T09:16:04;18.27;64.92
70421;SHT31;57848;51.938;15.520;2023-08-08T09:18:31;17.80;66.04
70421;SHT31;57848;51.938;15.520;2023-08-08T09:20:57;17.82;66.29
70421;SHT31;57848;51.938;15.520;2023-08-08T09:23:23;17.80;67.21
70421;SHT31;57848;51.938;15.520;2023-08-08T09:25:48;18.01;67.15
70421;SHT31;57848;51.938;15.520;2023-08-08T09:28:14;18.30;65.92
70421;SHT31;57848;51.938;15.520;2023-08-08T09:30:41;18.20;65.60
70421;SHT31;57848;51.938;15.520;2023-08-08T09:33:07;18.24;65.15
70421;SHT31;57848;51.938;15.520;2023-08-08T09:35:32;18.41;64.55
70421;SHT31;57848;51.938;15.520;2023-08-08T09:37:58;18.34;64.78
70421;SHT31;57848;51.938;15.520;2023-08-08T09:40:24;18.24;64.55
70421;SHT31;57848;51.938;15.520;2023-08-08T09:42:51;18.58;66.26
70421;SHT31;57848;51.938;15.520;2023-08-08T09:45:16;18.58;65.26
70421;SHT31;57848;51.938;15.520;2023-08-08T09:47:42;18.18;65.04
70421;SHT31;57848;51.938;15.520;2023-08-08T09:50:08;17.98;66.43
70421;SHT31;57848;51.938;15.520;2023-08-08T09:52:34;17.75;66.78
70421;SHT31;57848;51.938;15.520;2023-08-08T09:55:00;17.91;67.13
70421;SHT31;57848;51.938;15.520;2023-08-08T09:57:25;18.24;65.31
70421;SHT31;57848;51.938;15.520;2023-08-08T09:59:51;18.18;65.79
70421;SHT31;57848;51.938;15.520;2023-08-08T10:02:17;18.14;65.09
70421;SHT31;57848;51.938;15.520;2023-08-08T10:04:46;17.96;64.63
70421;SHT31;57848;51.938;15.520;2023-08-08T10:07:11;17.97;64.11
70421;SHT31;57848;51.938;15.520;2023-08-08T10:09:37;18.04;64.93
70421;SHT31;57848;51.938;15.520;2023-08-08T10:12:04;18.23;65.36
70421;SHT31;57848;51.938;15.520;2023-08-08T10:14:31;18.57;64.77
70421;SHT31;57848;51.938;15.520;2023-08-08T10:16:57;18.75;63.91
70421;SHT31;57848;51.938;15.520;2023-08-08T10:19:23;18.62;63.81
70421;SHT31;57848;51.938;15.520;2023-08-08T10:21:48;18.51;64.22
70421;SHT31;57848;51.938;15.520;2023-08-08T10:24:20;18.38;64.05
70421;SHT31;57848;51.938;15.520;2023-08-08T10:26:52;18.13;64.66
70421;SHT31;57848;51.938;15.520;2023-08-08T10:29:19;18.08;66.11
70421;SHT31;57848;51.938;15.520;2023-08-08T10:31:52;17.86;65.42
70421;SHT31;57848;51.938;15.520;2023-08-08T10:34:20;17.73;66.05
70421;SHT31;57848;51.938;15.520;2023-08-08T10:36:50;17.58;66.71
70421;SHT31;57848;51.938;15.520;2023-08-08T10:39:17;17.53;65.95
70421;SHT31;57848;51.938;15.520;2023-08-08T10:41:45;17.52;66.10
70421;SHT31;57848;51.938;15.520;2023-08-08T10:44:11;17.98;66.08
70421;SHT31;57848;51.938;15.520;2023-08-08T10:46:40;18.47;65.04
70421;SHT31;57848;51.938;15.520;2023-08-08T10:49:06;19.00;63.06
70421;SHT31;57848;51.938;15.520;2023-08-08T10:51:39;20.14;59.45
70421;SHT31;57848;51.938;15.520;2023-08-08T10:56:41;21.31;55.18
70421;SHT31;57848;51.938;15.520;2023-08-08T10:59:22;20.70;57.11
70421;SHT31;57848;51.938;15.520;2023-08-08T11:01:49;20.16;57.74
70421;SHT31;57848;51.938;15.520;2023-08-08T11:04:18;20.21;57.68
70421;SHT31;57848;51.938;15.520;2023-08-08T11:06:44;20.15;58.21
70421;SHT31;57848;51.938;15.520;2023-08-08T11:09:10;19.89;59.01
70421;SHT31;57848;51.938;15.520;2023-08-08T11:11:37;19.26;60.02
70421;SHT31;57848;51.938;15.520;2023-08-08T11:14:13;18.98;59.81
70421;SHT31;57848;51.938;15.520;2023-08-08T11:16:39;19.85;58.40
70421;SHT31;57848;51.938;15.520;2023-08-08T11:19:05;20.02;58.72
70421;SHT31;57848;51.938;15.520;2023-08-08T11:21:33;21.20;55.05
70421;SHT31;57848;51.938;15.520;2023-08-08T11:23:59;22.48;52.65
70421;SHT31;57848;51.938;15.520;2023-08-08T11:26:24;22.79;51.68
70421;SHT31;57848;51.938;15.520;2023-08-08T11:28:51;21.88;51.91
70421;SHT31;57848;51.938;15.520;2023-08-08T11:31:19;21.78;52.30
70421;SHT31;57848;51.938;15.520;2023-08-08T11:33:47;21.37;53.99
70421;SHT31;57848;51.938;15.520;2023-08-08T11:36:14;21.61;53.67
70421;SHT31;57848;51.938;15.520;2023-08-08T11:38:39;22.10;52.41
70421;SHT31;57848;51.938;15.520;2023-08-08T11:41:06;21.88;52.69
70421;SHT31;57848;51.938;15.520;2023-08-08T11:43:31;21.71;53.32
70421;SHT31;57848;51.938;15.520;2023-08-08T11:46:00;21.49;54.72
70421;SHT31;57848;51.938;15.520;2023-08-08T11:48:26;21.89;53.66
70421;SHT31;57848;51.938;15.520;2023-08-08T11:50:52;22.95;51.76
70421;SHT31;57848;51.938;15.520;2023-08-08T11:53:19;22.76;51.57
70421;SHT31;57848;51.938;15.520;2023-08-08T11:55:44;23.05;51.34
70421;SHT31;57848;51.938;15.520;2023-08-08T11:58:13;24.12;48.81
70421;SHT31;57848;51.938;15.520;2023-08-08T12:00:39;24.94;46.09
70421;SHT31;57848;51.938;15.520;2023-08-08T12:03:04;24.47;47.55
70421;SHT31;57848;51.938;15.520;2023-08-08T12:05:36;25.85;45.25
70421;SHT31;57848;51.938;15.520;2023-08-08T12:08:05;26.95;43.05
70421;SHT31;57848;51.938;15.520;2023-08-08T12:10:30;27.71;40.79
70421;SHT31;57848;51.938;15.520;2023-08-08T12:12:57;27.19;40.96
70421;SHT31;57848;51.938;15.520;2023-08-08T12:15:36;27.55;41.27
70421;SHT31;57848;51.938;15.520;2023-08-08T12:18:03;25.92;43.11
70421;SHT31;57848;51.938;15.520;2023-08-08T12:20:29;24.29;45.10
70421;SHT31;57848;51.938;15.520;2023-08-08T12:22:55;25.81;44.53
70421;SHT31;57848;51.938;15.520;2023-08-08T12:25:20;24.69;45.22
70421;SHT31;57848;51.938;15.520;2023-08-08T12:27:46;24.32;47.00
70421;SHT31;57848;51.938;15.520;2023-08-08T12:30:11;24.01;47.21
70421;SHT31;57848;51.938;15.520;2023-08-08T12:32:36;23.43;48.23
70421;SHT31;57848;51.938;15.520;2023-08-08T12:35:02;24.82;46.40
70421;SHT31;57848;51.938;15.520;2023-08-08T12:37:27;26.12;44.61
70421;SHT31;57848;51.938;15.520;2023-08-08T12:39:52;25.47;44.18
70421;SHT31;57848;51.938;15.520;2023-08-08T12:42:18;24.93;44.47
70421;SHT31;57848;51.938;15.520;2023-08-08T12:44:44;25.41;45.85
70421;SHT31;57848;51.938;15.520;2023-08-08T12:47:10;26.33;42.95
70421;SHT31;57848;51.938;15.520;2023-08-08T12:49:35;25.68;43.20
70421;SHT31;57848;51.938;15.520;2023-08-08T12:52:01;26.13;42.45
70421;SHT31;57848;51.938;15.520;2023-08-08T12:54:26;26.35;39.62
70421;SHT31;57848;51.938;15.520;2023-08-08T12:56:52;26.58;39.62
70421;SHT31;57848;51.938;15.520;2023-08-08T12:59:17;27.18;39.57
70421;SHT31;57848;51.938;15.520;2023-08-08T13:01:42;26.10;40.76
70421;SHT31;57848;51.938;15.520;2023-08-08T13:04:07;25.89;40.97
70421;SHT31;57848;51.938;15.520;2023-08-08T13:06:34;24.42;43.74
70421;SHT31;57848;51.938;15.520;2023-08-08T13:08:59;24.45;44.50
70421;SHT31;57848;51.938;15.520;2023-08-08T13:11:26;24.53;44.69
70421;SHT31;57848;51.938;15.520;2023-08-08T13:13:51;24.87;43.99
70421;SHT31;57848;51.938;15.520;2023-08-08T13:16:16;24.22;45.79
70421;SHT31;57848;51.938;15.520;2023-08-08T13:18:42;24.77;44.03
70421;SHT31;57848;51.938;15.520;2023-08-08T13:21:07;25.61;43.00
70421;SHT31;57848;51.938;15.520;2023-08-08T13:23:33;25.54;42.89
70421;SHT31;57848;51.938;15.520;2023-08-08T13:25:58;26.08;42.77
70421;SHT31;57848;51.938;15.520;2023-08-08T13:28:23;26.36;42.26
70421;SHT31;57848;51.938;15.520;2023-08-08T13:30:49;25.90;43.01
70421;SHT31;57848;51.938;15.520;2023-08-08T13:33:14;24.77;44.51
70421;SHT31;57848;51.938;15.520;2023-08-08T13:35:39;24.01;45.55
70421;SHT31;57848;51.938;15.520;2023-08-08T13:38:04;22.87;47.25
70421;SHT31;57848;51.938;15.520;2023-08-08T13:40:30;22.88;47.51
70421;SHT31;57848;51.938;15.520;2023-08-08T13:42:55;22.82;47.81
70421;SHT31;57848;51.938;15.520;2023-08-08T13:45:21;22.36;49.32
70421;SHT31;57848;51.938;15.520;2023-08-08T13:47:48;21.86;50.53
70421;SHT31;57848;51.938;15.520;2023-08-08T13:50:14;21.49;52.52
70421;SHT31;57848;51.938;15.520;2023-08-08T13:52:40;21.34;52.70
70421;SHT31;57848;51.938;15.520;2023-08-08T13:55:07;20.98;54.02
70421;SHT31;57848;51.938;15.520;2023-08-08T13:57:32;20.59;55.04
70421;SHT31;57848;51.938;15.520;2023-08-08T13:59:58;20.43;55.80
70421;SHT31;57848;51.938;15.520;2023-08-08T14:02:23;20.50;56.40
70421;SHT31;57848;51.938;15.520;2023-08-08T14:04:48;20.91;56.71
70421;SHT31;57848;51.938;15.520;2023-08-08T14:07:14;20.79;56.23
70421;SHT31;57848;51.938;15.520;2023-08-08T14:09:40;20.64;56.94
70421;SHT31;57848;51.938;15.520;2023-08-08T14:12:05;20.47;57.27
70421;SHT31;57848;51.938;15.520;2023-08-08T14:14:30;20.42;58.48
70421;SHT31;57848;51.938;15.520;2023-08-08T14:16:56;20.35;58.42
70421;SHT31;57848;51.938;15.520;2023-08-08T14:19:22;20.45;58.27
70421;SHT31;57848;51.938;15.520;2023-08-08T14:21:47;20.72;58.65
70421;SHT31;57848;51.938;15.520;2023-08-08T14:24:12;20.81;59.15
70421;SHT31;57848;51.938;15.520;2023-08-08T14:26:38;20.73;57.84
70421;SHT31;57848;51.938;15.520;2023-08-08T14:29:04;20.80;58.67
70421;SHT31;57848;51.938;15.520;2023-08-08T14:31:29;20.73;58.37
70421;SHT31;57848;51.938;15.520;2023-08-08T14:33:55;20.84;58.58
70421;SHT31;57848;51.938;15.520;2023-08-08T14:36:20;20.90;56.96
70421;SHT31;57848;51.938;15.520;2023-08-08T14:38:45;21.05;57.75
70421;SHT31;57848;51.938;15.520;2023-08-08T14:41:11;21.04;57.15
70421;SHT31;57848;51.938;15.520;2023-08-08T14:43:36;20.84;57.03
70421;SHT31;57848;51.938;15.520;2023-08-08T14:46:01;20.86;57.48
70421;SHT31;57848;51.938;15.520;2023-08-08T14:48:27;20.73;57.66
70421;SHT31;57848;51.938;15.520;2023-08-08T14:50:52;20.62;57.73
70421;SHT31;57848;51.938;15.520;2023-08-08T14:53:18;20.49;58.26
70421;SHT31;57848;51.938;15.520;2023-08-08T14:55:43;20.42;59.45
70421;SHT31;57848;51.938;15.520;2023-08-08T14:58:08;20.24;59.89
70421;SHT31;57848;51.938;15.520;2023-08-08T15:00:34;19.99;60.57
70421;SHT31;57848;51.938;15.520;2023-08-08T15:02:59;19.71;64.14
70421;SHT31;57848;51.938;15.520;2023-08-08T15:05:24;19.36;66.02
70421;SHT31;57848;51.938;15.520;2023-08-08T15:07:50;18.72;68.07
70421;SHT31;57848;51.938;15.520;2023-08-08T15:10:15;18.16;75.52